createdAt,value
2022-09-15T00:00:13.859Z,37.60
2022-09-15T00:05:19.034Z,37.83
2022-09-15T00:10:22.100Z,37.92
2022-09-15T00:15:25.360Z,37.60
2022-09-15T00:20:29.565Z,37.55
2022-09-15T00:25:32.531Z,37.58
2022-09-15T00:30:35.399Z,37.78
2022-09-15T00:35:40.712Z,37.67
2022-09-15T00:40:48.465Z,37.95
2022-09-15T00:45:52.920Z,37.25
2022-09-15T00:50:58.863Z,37.13
2022-09-15T00:56:04.475Z,37.63
2022-09-15T01:01:09.347Z,37.42
2022-09-15T01:06:19.078Z,37.35
2022-09-15T01:11:22.210Z,37.35
2022-09-15T01:16:32.572Z,37.00
2022-09-15T01:21:43.206Z,37.55
2022-09-15T01:27:24.184Z,37.17
2022-09-15T01:32:54.794Z,37.67
2022-09-15T01:38:03.452Z,37.72
2022-09-15T01:43:09.443Z,37.45
2022-09-15T01:48:14.124Z,37.10
2022-09-15T01:53:19.876Z,36.75
2022-09-15T01:58:23.018Z,36.92
2022-09-15T02:03:33.702Z,37.00
2022-09-15T02:08:44.832Z,36.85
2022-09-15T02:13:48.869Z,37.22
2022-09-15T02:19:16.433Z,37.33
2022-09-15T02:24:23.143Z,37.15
2022-09-15T02:29:28.647Z,37.03
2022-09-15T02:34:37.503Z,37.15
2022-09-15T02:39:44.617Z,36.80
2022-09-15T02:44:47.473Z,36.55
2022-09-15T02:49:51.740Z,36.60
2022-09-15T02:54:54.653Z,37.50
2022-09-15T03:00:17.004Z,40.67
2022-09-15T03:05:23.313Z,37.30
2022-09-15T03:10:27.169Z,37.45
2022-09-15T03:15:30.122Z,37.40
2022-09-15T03:20:34.311Z,37.13
2022-09-15T03:25:37.565Z,37.33
2022-09-15T03:30:40.582Z,37.53
2022-09-15T03:35:47.004Z,36.92
2022-09-15T03:41:01.525Z,36.83
2022-09-15T03:46:05.948Z,36.70
2022-09-15T03:51:11.269Z,36.95
2022-09-15T03:56:22.295Z,36.83
2022-09-15T04:01:25.858Z,36.83
2022-09-15T04:06:30.178Z,37.45
2022-09-15T04:11:33.397Z,36.97
2022-09-15T04:16:36.489Z,37.08
2022-09-15T04:21:40.732Z,36.53
2022-09-15T04:26:44.603Z,37.20
2022-09-15T04:31:48.197Z,36.67
2022-09-15T04:36:52.450Z,36.70
2022-09-15T04:41:55.461Z,36.67
2022-09-15T04:46:58.415Z,36.92
2022-09-15T04:52:06.615Z,36.67
2022-09-15T04:57:12.006Z,36.67
2022-09-15T05:02:14.895Z,36.78
2022-09-15T05:07:19.403Z,36.78
2022-09-15T05:12:22.292Z,36.88
2022-09-15T05:17:26.835Z,37.30
2022-09-15T05:22:32.540Z,36.85
2022-09-15T05:27:35.463Z,36.50
2022-09-15T05:32:38.432Z,37.03
2022-09-15T05:37:42.599Z,36.50
2022-09-15T05:42:45.437Z,37.35
2022-09-15T05:47:48.301Z,36.47
2022-09-15T05:52:54.101Z,36.97
2022-09-15T05:57:57.392Z,36.15
2022-09-15T06:03:00.634Z,36.60
2022-09-15T06:08:05.012Z,36.22
2022-09-15T06:13:07.886Z,35.95
2022-09-15T06:18:10.739Z,36.17
2022-09-15T06:23:15.011Z,36.40
2022-09-15T06:28:18.726Z,36.47
2022-09-15T06:33:21.577Z,36.55
2022-09-15T06:38:25.768Z,36.13
2022-09-15T06:43:28.626Z,36.80
2022-09-15T06:48:32.608Z,36.58
2022-09-15T06:53:38.504Z,36.88
2022-09-15T06:58:43.874Z,36.35
2022-09-15T07:03:47.329Z,36.53
2022-09-15T07:08:53.844Z,36.47
2022-09-15T07:13:56.897Z,36.90
2022-09-15T07:19:01.940Z,36.45
2022-09-15T07:24:07.772Z,36.25
2022-09-15T07:29:10.972Z,37.05
2022-09-15T07:34:13.898Z,36.35
2022-09-15T07:39:18.140Z,36.17
2022-09-15T07:44:20.980Z,36.58
2022-09-15T07:49:23.806Z,36.15
2022-09-15T07:54:28.005Z,36.33
2022-09-15T07:59:31.144Z,36.33
2022-09-15T08:04:34.028Z,36.55
2022-09-15T08:09:39.740Z,36.45
2022-09-15T08:14:42.605Z,36.47
2022-09-15T08:19:45.880Z,36.22
2022-09-15T08:24:50.448Z,36.53
2022-09-15T08:29:53.341Z,36.20
2022-09-15T08:34:56.334Z,36.15
2022-09-15T08:40:00.585Z,36.45
2022-09-15T08:45:09.435Z,37.45
2022-09-15T08:50:20.524Z,36.50
2022-09-15T08:55:38.394Z,36.78
2022-09-15T09:00:41.843Z,36.92
2022-09-15T09:05:54.200Z,38.40
2022-09-15T09:11:05.754Z,36.33
2022-09-15T09:16:28.289Z,37.03
2022-09-15T09:21:34.068Z,36.75
2022-09-15T09:26:39.542Z,37.42
2022-09-15T09:31:44.134Z,36.45
2022-09-15T09:36:47.254Z,36.58
2022-09-15T09:41:51.494Z,36.35
2022-09-15T09:46:54.351Z,36.33
2022-09-15T09:52:00.056Z,36.17
2022-09-15T09:57:27.980Z,36.35
2022-09-15T10:02:31.300Z,36.67
2022-09-15T10:07:35.671Z,36.15
2022-09-15T10:12:42.619Z,36.88
2022-09-15T10:17:47.892Z,35.95
2022-09-15T10:22:51.306Z,36.92
2022-09-15T10:28:11.808Z,35.22
2022-09-15T10:33:25.279Z,35.63
2022-09-15T10:38:35.365Z,35.72
2022-09-15T10:43:47.854Z,35.85
2022-09-15T10:49:06.038Z,35.45
2022-09-15T10:54:28.788Z,36.72
2022-09-15T10:59:43.409Z,35.45
2022-09-15T11:05:01.141Z,35.90
2022-09-15T11:10:12.119Z,36.35
2022-09-15T11:15:32.411Z,36.10
2022-09-15T11:21:06.107Z,36.85
2022-09-15T11:26:14.494Z,36.65
2022-09-15T11:31:22.972Z,36.53
2022-09-15T11:36:32.752Z,36.05
2022-09-15T11:41:39.234Z,36.63
2022-09-15T11:47:04.120Z,35.60
2022-09-15T11:52:15.533Z,35.92
2022-09-15T11:57:22.889Z,36.05
2022-09-15T12:02:32.644Z,36.97
2022-09-15T12:07:41.717Z,35.85
2022-09-15T12:12:46.611Z,37.15
2022-09-15T12:18:03.555Z,36.65
2022-09-15T12:23:22.762Z,36.47
2022-09-15T12:28:40.356Z,36.67
2022-09-15T12:33:54.598Z,36.90
2022-09-15T12:38:57.955Z,37.63
2022-09-15T12:44:17.313Z,36.80
2022-09-15T12:49:29.390Z,37.45
2022-09-15T12:54:35.072Z,37.08
2022-09-15T12:59:37.917Z,37.50
2022-09-15T13:04:55.682Z,37.65
2022-09-15T13:10:01.291Z,37.25
2022-09-15T13:15:08.660Z,37.17
2022-09-15T13:20:19.348Z,37.78
2022-09-15T13:25:28.658Z,38.00
2022-09-15T13:30:43.763Z,37.10
2022-09-15T13:36:14.071Z,38.08
2022-09-15T13:41:40.096Z,37.28
2022-09-15T13:46:54.269Z,37.50
2022-09-15T13:52:04.126Z,37.92
2022-09-15T13:57:07.086Z,37.15
2022-09-15T14:02:12.089Z,36.97
2022-09-15T14:07:23.955Z,36.63
2022-09-15T14:12:26.946Z,37.03
2022-09-15T14:17:44.944Z,36.78
2022-09-15T14:22:52.046Z,37.15
2022-09-15T14:27:58.199Z,36.67
2022-09-15T14:33:04.073Z,36.67
2022-09-15T14:38:20.062Z,37.17
2022-09-15T14:43:28.086Z,37.10
2022-09-15T14:48:34.501Z,36.95
2022-09-15T14:53:42.568Z,36.75
2022-09-15T14:58:55.369Z,37.03
2022-09-15T15:04:10.256Z,37.38
2022-09-15T15:09:26.228Z,37.33
2022-09-15T15:14:30.860Z,36.90
2022-09-15T15:20:12.871Z,37.42
2022-09-15T15:25:27.563Z,37.28
2022-09-15T15:30:46.697Z,37.40
2022-09-15T15:36:05.959Z,37.78
2022-09-15T15:41:19.985Z,37.38
2022-09-15T15:46:49.235Z,37.33
2022-09-15T15:52:10.788Z,37.28
2022-09-15T15:57:33.106Z,37.97
2022-09-15T16:02:36.288Z,37.85
2022-09-15T16:07:42.632Z,38.00
2022-09-15T16:12:48.061Z,38.13
2022-09-15T16:17:51.016Z,37.65
2022-09-15T16:22:56.141Z,37.78
2022-09-15T16:28:01.058Z,37.38
2022-09-15T16:33:11.162Z,37.83
2022-09-15T16:38:33.534Z,37.42
2022-09-15T16:43:37.824Z,37.90
2022-09-15T16:48:42.788Z,37.85
2022-09-15T16:53:47.528Z,38.28
2022-09-15T16:58:58.870Z,37.97
2022-09-15T17:04:06.232Z,37.92
2022-09-15T17:09:09.183Z,37.83
2022-09-15T17:14:17.870Z,39.92
2022-09-15T17:19:20.866Z,38.25
2022-09-15T17:24:40.990Z,39.55
2022-09-15T17:29:45.229Z,38.40
2022-09-15T17:34:48.161Z,38.15
2022-09-15T17:39:52.742Z,37.55
2022-09-15T17:45:01.169Z,38.70
2022-09-15T17:50:04.209Z,38.10
2022-09-15T17:55:16.992Z,37.50
2022-09-15T18:00:23.189Z,37.25
2022-09-15T18:05:56.659Z,42.15
2022-09-15T18:11:00.228Z,39.83
2022-09-15T18:16:07.769Z,37.92
2022-09-15T18:21:21.351Z,38.40
2022-09-15T18:26:26.500Z,37.85
2022-09-15T18:31:31.363Z,38.85
2022-09-15T18:36:34.346Z,37.88
2022-09-15T18:41:38.716Z,37.78
2022-09-15T18:46:44.205Z,37.72
2022-09-15T18:51:51.579Z,37.55
2022-09-15T18:57:03.258Z,37.67
2022-09-15T19:02:07.851Z,37.60
2022-09-15T19:07:14.907Z,38.72
2022-09-15T19:12:18.042Z,37.78
2022-09-15T19:17:22.442Z,37.70
2022-09-15T19:22:25.416Z,37.78
2022-09-15T19:27:28.810Z,37.53
2022-09-15T19:32:34.185Z,38.17
2022-09-15T19:37:46.444Z,37.17
2022-09-15T19:42:51.903Z,38.22
2022-09-15T19:47:56.419Z,38.40
2022-09-15T19:52:59.803Z,37.65
2022-09-15T19:58:04.758Z,37.30
2022-09-15T20:03:09.495Z,37.17
2022-09-15T20:08:12.382Z,37.30
2022-09-15T20:13:16.704Z,38.05
2022-09-15T20:18:20.988Z,37.22
2022-09-15T20:23:25.274Z,37.20
2022-09-15T20:28:29.256Z,38.10
2022-09-15T20:33:34.883Z,37.47
2022-09-15T20:38:38.877Z,37.13
2022-09-15T20:43:43.090Z,38.10
2022-09-15T20:48:47.631Z,37.80
2022-09-15T20:53:52.404Z,37.95
2022-09-15T20:58:57.713Z,37.08
2022-09-15T21:04:02.138Z,36.90
2022-09-15T21:09:06.166Z,37.13
2022-09-15T21:14:24.481Z,37.22
2022-09-15T21:19:28.888Z,37.20
2022-09-15T21:24:31.763Z,37.00
2022-09-15T21:29:34.901Z,37.53
2022-09-15T21:34:39.184Z,36.83
2022-09-15T21:39:42.070Z,37.03
2022-09-15T21:44:45.194Z,36.97
2022-09-15T21:49:50.753Z,36.80
2022-09-15T21:54:54.259Z,36.50
2022-09-15T21:59:57.180Z,37.03
2022-09-15T22:05:01.415Z,36.83
2022-09-15T22:10:04.605Z,36.47
2022-09-15T22:15:08.493Z,37.03
2022-09-15T22:20:13.017Z,36.85
2022-09-15T22:25:21.145Z,37.15
2022-09-15T22:30:24.874Z,37.08
2022-09-15T22:35:29.131Z,36.92
2022-09-15T22:40:32.115Z,37.45
2022-09-15T22:45:35.104Z,37.33
2022-09-15T22:50:39.494Z,37.03
2022-09-15T22:55:53.548Z,37.40
2022-09-15T23:01:04.120Z,37.20
2022-09-15T23:06:09.222Z,36.83
2022-09-15T23:11:14.417Z,37.15
2022-09-15T23:16:17.682Z,36.92
2022-09-15T23:21:22.218Z,37.40
2022-09-15T23:26:25.916Z,37.08
2022-09-15T23:31:28.896Z,37.10
2022-09-15T23:36:33.140Z,37.30
2022-09-15T23:41:36.825Z,36.95
2022-09-15T23:46:39.796Z,37.25
2022-09-15T23:51:44.438Z,36.90
2022-09-15T23:56:47.336Z,36.53
